Rorichmoor — V2BV7 — position and weather

sailwx.info

Track history (hours):
 
Tides and Currents Weather Stations Pressure Air Temp Water Temp Dewpoint Dewpoint Depression Visibility Wind Speed Wind Dir Waves Ship Positions

Rorichmoor

Last reported at 2014-Dec-17 15:33 UTC. Time now 2014-Dec-18 09:37 UTC.
Position N 39°25' E 008°08'.

Length 80 m; draft 3.1 m.

Type: Cargo ship. MMSI: 304938000.

Date/timePositionNaut miles runAvg speedWind from/ knotsBaromVisibWave heightAir tempDewpointWater temp
2014-Dec-17 15:33N 39°25' E 008°08'245 9.7
2014-Dec-16 14:19N 43°25' E 009°07'8 9.9
2014-Dec-16 13:34N 43°32' E 009°13'1010.0
2014-Dec-16 12:34N 43°40' E 009°20'10 9.9
2014-Dec-16 11:34N 43°48' E 009°29'10 9.8
2014-Dec-16 10:34N 43°55' E 009°39'1010.1
2014-Dec-16 09:34N 44°00' E 009°50'6 5.7
2014-Dec-16 08:31N 44°06' E 009°50'0 0.0
2014-Dec-16 07:31N 44°06' E 009°50'0 0.0
2014-Dec-16 06:31N 44°06' E 009°50'0 0.0
2014-Dec-16 05:28N 44°06' E 009°50'0 0.0
2014-Dec-16 04:32N 44°06' E 009°50'0 0.0
2014-Dec-16 03:31N 44°06' E 009°50'0 0.0
2014-Dec-16 01:04N 44°06' E 009°50'0 0.0
2014-Dec-16 00:07N 44°06' E 009°50'0 0.0
2014-Dec-15 23:19N 44°06' E 009°50'0 0.0
2014-Dec-15 22:31N 44°06' E 009°50'0 0.0
2014-Dec-15 21:31N 44°06' E 009°50'0 0.0
2014-Dec-15 20:31N 44°06' E 009°50'0 0.0
2014-Dec-15 19:31N 44°06' E 009°50'0 0.0
2014-Dec-15 18:31N 44°06' E 009°50'0 0.0
2014-Dec-15 17:31N 44°06' E 009°50'0 0.0
2014-Dec-15 16:31N 44°06' E 009°50'0 0.0
2014-Dec-15 15:31N 44°06' E 009°50'0 0.0
2014-Dec-15 14:31N 44°06' E 009°50'0 0.0
2014-Dec-15 13:31N 44°06' E 009°50'0 0.0
2014-Dec-15 12:31N 44°06' E 009°50'0 0.0
2014-Dec-15 11:31N 44°06' E 009°50'0 0.0
2014-Dec-15 10:31N 44°06' E 009°50'0 0.0
2014-Dec-15 09:31N 44°06' E 009°50'0 0.0
2014-Dec-15 08:31N 44°06' E 009°50'0 0.0
2014-Dec-15 07:31N 44°06' E 009°50'0 0.0
2014-Dec-15 06:31N 44°06' E 009°50'0 0.0
2014-Dec-15 05:31N 44°06' E 009°50'0 0.0
2014-Dec-15 04:31N 44°06' E 009°50'0 0.0
2014-Dec-15 03:31N 44°06' E 009°50'0 0.0
2014-Dec-15 02:31N 44°06' E 009°50'0 0.0
2014-Dec-15 01:31N 44°06' E 009°50'0 0.0
2014-Dec-15 00:31N 44°06' E 009°50'0 0.0
2014-Dec-14 23:31N 44°06' E 009°50'0 0.0
2014-Dec-14 22:31N 44°06' E 009°50'0 0.0
2014-Dec-14 21:31N 44°06' E 009°50'0 0.0
2014-Dec-14 20:31N 44°06' E 009°50'0 0.0
2014-Dec-14 19:31N 44°06' E 009°50'0 0.0
2014-Dec-14 18:31N 44°06' E 009°50'0 0.0
2014-Dec-14 17:31N 44°06' E 009°50'0 0.0
2014-Dec-14 16:31N 44°06' E 009°50'0 0.0
2014-Dec-14 15:31N 44°06' E 009°50'0 0.0
2014-Dec-14 14:31N 44°06' E 009°50'0 0.0
2014-Dec-14 13:31N 44°06' E 009°50'0 0.0
2014-Dec-14 12:31N 44°06' E 009°50'0 0.0
2014-Dec-14 11:31N 44°06' E 009°50'5 4.7
2014-Dec-14 10:33N 44°02' E 009°53'6 5.6
2014-Dec-14 09:34N 43°58' E 009°48'9 9.3
2014-Dec-14 08:33N 43°54' E 009°37'9 9.4
2014-Dec-14 07:33N 43°50' E 009°25'9 9.5
2014-Dec-14 06:33N 43°45' E 009°13'10 9.7
2014-Dec-14 05:33N 43°41' E 009°01'86 9.5
2014-Dec-13 20:34N 43°09' E 007°12'9 8.9
2014-Dec-13 19:33N 43°06' E 007°00'9 8.6
2014-Dec-13 18:33N 43°03' E 006°49'34 8.1
2014-Dec-13 14:25N 43°01' E 006°03'8 9.1
2014-Dec-13 13:34N 43°06' E 005°55'1 1.3
2014-Dec-13 12:33N 43°06' E 005°53'0 0.0
2014-Dec-13 11:33N 43°06' E 005°53'0 0.0
2014-Dec-13 10:32N 43°06' E 005°53'0 0.0
2014-Dec-13 09:30N 43°06' E 005°53'0 0.0
2014-Dec-13 08:33N 43°06' E 005°53'0 0.0
2014-Dec-13 07:33N 43°06' E 005°53'0 0.0
2014-Dec-13 06:33N 43°06' E 005°53'0 0.0
2014-Dec-13 05:32N 43°06' E 005°53'0 0.0
2014-Dec-13 04:30N 43°06' E 005°53'0 0.0
2014-Dec-13 03:33N 43°06' E 005°53'0 0.0
2014-Dec-13 02:30N 43°06' E 005°53'0 0.0
2014-Dec-13 01:33N 43°06' E 005°53'0 0.0
2014-Dec-13 00:33N 43°06' E 005°53'0 0.0
2014-Dec-12 23:32N 43°06' E 005°53'0 0.0
2014-Dec-12 22:33N 43°06' E 005°53'0 0.0
2014-Dec-12 21:33N 43°06' E 005°53'0 0.0
2014-Dec-12 20:33N 43°06' E 005°53'0 0.0
2014-Dec-12 19:33N 43°06' E 005°53'0 0.0
2014-Dec-12 18:33N 43°06' E 005°53'0 0.0
2014-Dec-12 17:33N 43°06' E 005°53'0 0.0
2014-Dec-12 16:33N 43°06' E 005°53'0 0.0
2014-Dec-12 15:29N 43°06' E 005°53'0 0.0
2014-Dec-12 14:30N 43°06' E 005°53'0 0.0
2014-Dec-12 13:32N 43°06' E 005°53'0 0.0
2014-Dec-12 12:32N 43°06' E 005°53'0 0.0
2014-Dec-12 11:33N 43°06' E 005°53'0 0.0
2014-Dec-12 10:33N 43°06' E 005°53'0 0.0
2014-Dec-12 09:32N 43°06' E 005°53'0 0.0
2014-Dec-12 08:32N 43°06' E 005°53'0 0.0
2014-Dec-12 07:32N 43°06' E 005°53'0 0.0
2014-Dec-12 06:32N 43°06' E 005°53'0 0.0
2014-Dec-12 05:32N 43°06' E 005°53'0 0.0
2014-Dec-12 04:33N 43°06' E 005°53'0 0.0
2014-Dec-12 03:32N 43°06' E 005°53'0 0.0
2014-Dec-12 02:33N 43°06' E 005°53'0 0.0
2014-Dec-12 01:32N 43°06' E 005°53'0 0.0
2014-Dec-12 00:32N 43°06' E 005°53'0 0.0
2014-Dec-11 23:32N 43°06' E 005°53'0 0.0
2014-Dec-11 22:32N 43°06' E 005°53'0 0.0
2014-Dec-11 21:32N 43°06' E 005°53'0 0.0
2014-Dec-11 20:33N 43°06' E 005°53'0 0.0
2014-Dec-11 19:33N 43°06' E 005°53'0 0.0
2014-Dec-11 18:33N 43°06' E 005°53'0 0.0
2014-Dec-11 17:32N 43°06' E 005°53'0 0.0
2014-Dec-11 16:32N 43°06' E 005°53'0 0.0
2014-Dec-11 15:33N 43°06' E 005°53'0 0.0
2014-Dec-11 14:30N 43°06' E 005°53'0 0.0
2014-Dec-11 13:33N 43°06' E 005°53'46 7.5
2014-Dec-11 07:28N 43°10' E 006°56'8410.4
2014-Dec-10 23:24N 43°37' E 008°45'910.2
2014-Dec-10 22:33N 43°41' E 008°56'1010.1
2014-Dec-10 21:33N 43°45' E 009°09'1010.3
2014-Dec-10 20:34N 43°50' E 009°21'1010.3
2014-Dec-10 19:33N 43°54' E 009°34'1010.3
2014-Dec-10 18:33N 43°59' E 009°47'8 7.9
2014-Dec-10 17:33N 44°06' E 009°51'0 0.1
2014-Dec-10 16:33N 44°07' E 009°50'0 0.0
2014-Dec-10 15:33N 44°07' E 009°50'0 0.1
2014-Dec-10 14:34N 44°06' E 009°50'7 7.4
2014-Dec-10 13:33N 43°59' E 009°54'1010.2
2014-Dec-10 12:33N 43°55' E 009°41'1010.3
2014-Dec-10 11:33N 43°51' E 009°28'1010.3
2014-Dec-10 10:33N 43°46' E 009°15'1010.1
2014-Dec-10 09:33N 43°42' E 009°03'10 9.8
2014-Dec-10 08:31N 43°37' E 008°50'76 6.7
2014-Dec-09 21:12N 43°09' E 007°13'5 6.3
2014-Dec-09 20:27N 43°08' E 007°06'6 6.7
2014-Dec-09 19:33N 43°05' E 006°59'6 6.2
2014-Dec-09 18:33N 43°04' E 006°51'5 4.6
2014-Dec-09 17:32N 43°02' E 006°45'38 4.7
2014-Dec-09 09:18N 43°06' E 005°53'0 0.0
2014-Dec-09 08:33N 43°06' E 005°53'0 0.0
2014-Dec-09 07:33N 43°06' E 005°53'0 0.0
2014-Dec-09 06:33N 43°06' E 005°53'0 0.0
2014-Dec-09 05:33N 43°06' E 005°53'0 0.0
2014-Dec-09 04:33N 43°06' E 005°53'0 0.0
2014-Dec-09 03:33N 43°06' E 005°53'0 0.0
2014-Dec-09 02:33N 43°06' E 005°53'0 0.0
2014-Dec-09 01:33N 43°06' E 005°53'5 4.8
2014-Dec-09 00:33N 43°05' E 005°59'8 7.5
2014-Dec-08 23:33N 43°00' E 005°51'3110.1
2014-Dec-08 20:27N 43°11' E 005°10'910.0
2014-Dec-08 19:33N 43°16' E 004°60'9 9.1
2014-Dec-08 18:33N 43°24' E 004°53'3 3.3
2014-Dec-08 17:33N 43°23' E 004°48'1010.0
2014-Dec-08 16:33N 43°32' E 004°43'10 3.3
2014-Dec-08 13:21N 43°42' E 004°38'0 0.0
2014-Dec-08 12:33N 43°42' E 004°38'0 0.0
2014-Dec-08 11:28N 43°42' E 004°38'0 0.0
2014-Dec-08 10:03N 43°42' E 004°38'  
Track history (hours):
 
Tides and Currents Weather Stations Pressure Air Temp Water Temp Dewpoint Dewpoint Depression Visibility Wind Speed Wind Dir Waves Ship Positions

Rorichmoor

Last reported at 2014-Dec-17 15:33 UTC. Time now 2014-Dec-18 09:37 UTC.
Position N 39°25' E 008°08'.

Length 80 m; draft 3.1 m.

Type: Cargo ship. MMSI: 304938000.

Date/timePositionNaut miles runAvg speedWind from/ knotsBaromVisibWave heightAir tempDewpointWater temp
2014-Dec-17 15:33N 39°25' E 008°08'245 9.7
2014-Dec-16 14:19N 43°25' E 009°07'8 9.9
2014-Dec-16 13:34N 43°32' E 009°13'1010.0
2014-Dec-16 12:34N 43°40' E 009°20'10 9.9
2014-Dec-16 11:34N 43°48' E 009°29'10 9.8
2014-Dec-16 10:34N 43°55' E 009°39'1010.1
2014-Dec-16 09:34N 44°00' E 009°50'6 5.7
2014-Dec-16 08:31N 44°06' E 009°50'0 0.0
2014-Dec-16 07:31N 44°06' E 009°50'0 0.0
2014-Dec-16 06:31N 44°06' E 009°50'0 0.0
2014-Dec-16 05:28N 44°06' E 009°50'0 0.0
2014-Dec-16 04:32N 44°06' E 009°50'0 0.0
2014-Dec-16 03:31N 44°06' E 009°50'0 0.0
2014-Dec-16 01:04N 44°06' E 009°50'0 0.0
2014-Dec-16 00:07N 44°06' E 009°50'0 0.0
2014-Dec-15 23:19N 44°06' E 009°50'0 0.0
2014-Dec-15 22:31N 44°06' E 009°50'0 0.0
2014-Dec-15 21:31N 44°06' E 009°50'0 0.0
2014-Dec-15 20:31N 44°06' E 009°50'0 0.0
2014-Dec-15 19:31N 44°06' E 009°50'0 0.0
2014-Dec-15 18:31N 44°06' E 009°50'0 0.0
2014-Dec-15 17:31N 44°06' E 009°50'0 0.0
2014-Dec-15 16:31N 44°06' E 009°50'0 0.0
2014-Dec-15 15:31N 44°06' E 009°50'0 0.0
2014-Dec-15 14:31N 44°06' E 009°50'0 0.0
2014-Dec-15 13:31N 44°06' E 009°50'0 0.0
2014-Dec-15 12:31N 44°06' E 009°50'0 0.0
2014-Dec-15 11:31N 44°06' E 009°50'0 0.0
2014-Dec-15 10:31N 44°06' E 009°50'0 0.0
2014-Dec-15 09:31N 44°06' E 009°50'0 0.0
2014-Dec-15 08:31N 44°06' E 009°50'0 0.0
2014-Dec-15 07:31N 44°06' E 009°50'0 0.0
2014-Dec-15 06:31N 44°06' E 009°50'0 0.0
2014-Dec-15 05:31N 44°06' E 009°50'0 0.0
2014-Dec-15 04:31N 44°06' E 009°50'0 0.0
2014-Dec-15 03:31N 44°06' E 009°50'0 0.0
2014-Dec-15 02:31N 44°06' E 009°50'0 0.0
2014-Dec-15 01:31N 44°06' E 009°50'0 0.0
2014-Dec-15 00:31N 44°06' E 009°50'0 0.0
2014-Dec-14 23:31N 44°06' E 009°50'0 0.0
2014-Dec-14 22:31N 44°06' E 009°50'0 0.0
2014-Dec-14 21:31N 44°06' E 009°50'0 0.0
2014-Dec-14 20:31N 44°06' E 009°50'0 0.0
2014-Dec-14 19:31N 44°06' E 009°50'0 0.0
2014-Dec-14 18:31N 44°06' E 009°50'0 0.0
2014-Dec-14 17:31N 44°06' E 009°50'0 0.0
2014-Dec-14 16:31N 44°06' E 009°50'0 0.0
2014-Dec-14 15:31N 44°06' E 009°50'0 0.0
2014-Dec-14 14:31N 44°06' E 009°50'0 0.0
2014-Dec-14 13:31N 44°06' E 009°50'0 0.0
2014-Dec-14 12:31N 44°06' E 009°50'0 0.0
2014-Dec-14 11:31N 44°06' E 009°50'5 4.7
2014-Dec-14 10:33N 44°02' E 009°53'6 5.6
2014-Dec-14 09:34N 43°58' E 009°48'9 9.3
2014-Dec-14 08:33N 43°54' E 009°37'9 9.4
2014-Dec-14 07:33N 43°50' E 009°25'9 9.5
2014-Dec-14 06:33N 43°45' E 009°13'10 9.7
2014-Dec-14 05:33N 43°41' E 009°01'86 9.5
2014-Dec-13 20:34N 43°09' E 007°12'9 8.9
2014-Dec-13 19:33N 43°06' E 007°00'9 8.6
2014-Dec-13 18:33N 43°03' E 006°49'34 8.1
2014-Dec-13 14:25N 43°01' E 006°03'8 9.1
2014-Dec-13 13:34N 43°06' E 005°55'1 1.3
2014-Dec-13 12:33N 43°06' E 005°53'0 0.0
2014-Dec-13 11:33N 43°06' E 005°53'0 0.0
2014-Dec-13 10:32N 43°06' E 005°53'0 0.0
2014-Dec-13 09:30N 43°06' E 005°53'0 0.0
2014-Dec-13 08:33N 43°06' E 005°53'0 0.0
2014-Dec-13 07:33N 43°06' E 005°53'0 0.0
2014-Dec-13 06:33N 43°06' E 005°53'0 0.0
2014-Dec-13 05:32N 43°06' E 005°53'0 0.0
2014-Dec-13 04:30N 43°06' E 005°53'0 0.0
2014-Dec-13 03:33N 43°06' E 005°53'0 0.0
2014-Dec-13 02:30N 43°06' E 005°53'0 0.0
2014-Dec-13 01:33N 43°06' E 005°53'0 0.0
2014-Dec-13 00:33N 43°06' E 005°53'0 0.0
2014-Dec-12 23:32N 43°06' E 005°53'0 0.0
2014-Dec-12 22:33N 43°06' E 005°53'0 0.0
2014-Dec-12 21:33N 43°06' E 005°53'0 0.0
2014-Dec-12 20:33N 43°06' E 005°53'0 0.0
2014-Dec-12 19:33N 43°06' E 005°53'0 0.0
2014-Dec-12 18:33N 43°06' E 005°53'0 0.0
2014-Dec-12 17:33N 43°06' E 005°53'0 0.0
2014-Dec-12 16:33N 43°06' E 005°53'0 0.0
2014-Dec-12 15:29N 43°06' E 005°53'0 0.0
2014-Dec-12 14:30N 43°06' E 005°53'0 0.0
2014-Dec-12 13:32N 43°06' E 005°53'0 0.0
2014-Dec-12 12:32N 43°06' E 005°53'0 0.0
2014-Dec-12 11:33N 43°06' E 005°53'0 0.0
2014-Dec-12 10:33N 43°06' E 005°53'0 0.0
2014-Dec-12 09:32N 43°06' E 005°53'0 0.0
2014-Dec-12 08:32N 43°06' E 005°53'0 0.0
2014-Dec-12 07:32N 43°06' E 005°53'0 0.0
2014-Dec-12 06:32N 43°06' E 005°53'0 0.0
2014-Dec-12 05:32N 43°06' E 005°53'0 0.0
2014-Dec-12 04:33N 43°06' E 005°53'0 0.0
2014-Dec-12 03:32N 43°06' E 005°53'0 0.0
2014-Dec-12 02:33N 43°06' E 005°53'0 0.0
2014-Dec-12 01:32N 43°06' E 005°53'0 0.0
2014-Dec-12 00:32N 43°06' E 005°53'0 0.0
2014-Dec-11 23:32N 43°06' E 005°53'0 0.0
2014-Dec-11 22:32N 43°06' E 005°53'0 0.0
2014-Dec-11 21:32N 43°06' E 005°53'0 0.0
2014-Dec-11 20:33N 43°06' E 005°53'0 0.0
2014-Dec-11 19:33N 43°06' E 005°53'0 0.0
2014-Dec-11 18:33N 43°06' E 005°53'0 0.0
2014-Dec-11 17:32N 43°06' E 005°53'0 0.0
2014-Dec-11 16:32N 43°06' E 005°53'0 0.0
2014-Dec-11 15:33N 43°06' E 005°53'0 0.0
2014-Dec-11 14:30N 43°06' E 005°53'0 0.0
2014-Dec-11 13:33N 43°06' E 005°53'46 7.5
2014-Dec-11 07:28N 43°10' E 006°56'8410.4
2014-Dec-10 23:24N 43°37' E 008°45'910.2
2014-Dec-10 22:33N 43°41' E 008°56'1010.1
2014-Dec-10 21:33N 43°45' E 009°09'1010.3
2014-Dec-10 20:34N 43°50' E 009°21'1010.3
2014-Dec-10 19:33N 43°54' E 009°34'1010.3
2014-Dec-10 18:33N 43°59' E 009°47'8 7.9
2014-Dec-10 17:33N 44°06' E 009°51'0 0.1
2014-Dec-10 16:33N 44°07' E 009°50'0 0.0
2014-Dec-10 15:33N 44°07' E 009°50'0 0.1
2014-Dec-10 14:34N 44°06' E 009°50'7 7.4
2014-Dec-10 13:33N 43°59' E 009°54'1010.2
2014-Dec-10 12:33N 43°55' E 009°41'1010.3
2014-Dec-10 11:33N 43°51' E 009°28'1010.3
2014-Dec-10 10:33N 43°46' E 009°15'1010.1
2014-Dec-10 09:33N 43°42' E 009°03'10 9.8
2014-Dec-10 08:31N 43°37' E 008°50'76 6.7
2014-Dec-09 21:12N 43°09' E 007°13'5 6.3
2014-Dec-09 20:27N 43°08' E 007°06'6 6.7
2014-Dec-09 19:33N 43°05' E 006°59'6 6.2
2014-Dec-09 18:33N 43°04' E 006°51'5 4.6
2014-Dec-09 17:32N 43°02' E 006°45'38 4.7
2014-Dec-09 09:18N 43°06' E 005°53'0 0.0
2014-Dec-09 08:33N 43°06' E 005°53'0 0.0
2014-Dec-09 07:33N 43°06' E 005°53'0 0.0
2014-Dec-09 06:33N 43°06' E 005°53'0 0.0
2014-Dec-09 05:33N 43°06' E 005°53'0 0.0
2014-Dec-09 04:33N 43°06' E 005°53'0 0.0
2014-Dec-09 03:33N 43°06' E 005°53'0 0.0
2014-Dec-09 02:33N 43°06' E 005°53'0 0.0
2014-Dec-09 01:33N 43°06' E 005°53'5 4.8
2014-Dec-09 00:33N 43°05' E 005°59'8 7.5
2014-Dec-08 23:33N 43°00' E 005°51'3110.1
2014-Dec-08 20:27N 43°11' E 005°10'910.0
2014-Dec-08 19:33N 43°16' E 004°60'9 9.1
2014-Dec-08 18:33N 43°24' E 004°53'3 3.3
2014-Dec-08 17:33N 43°23' E 004°48'1010.0
2014-Dec-08 16:33N 43°32' E 004°43'10 3.3
2014-Dec-08 13:21N 43°42' E 004°38'0 0.0
2014-Dec-08 12:33N 43°42' E 004°38'0 0.0
2014-Dec-08 11:28N 43°42' E 004°38'0 0.0
2014-Dec-08 10:03N 43°42' E 004°38'  

Dump ship's entire track history